Time;durP1;ratioP1;P1;durP2;ratioP2;P2;SDS_P1;SDS_P2;PMS_P1;PMS_P2;Temp;Humidity;BMP_temperature;BMP_pressure;BME280_temperature;BME280_humidity;BME280_pressure;Samples;Min_cycle;Max_cycle;Signal;HPM_P1;HPM_P2
2021/03/25 00:01:45;;;;;;;36.40;23.63;;;13.10;60.80;;;;;;5041563;28;20083;-64
2021/03/25 00:04:11;;;;;;;43.67;29.08;;;13.10;60.80;;;;;;5048043;28;20108;-64
2021/03/25 00:06:42;;;;;;;40.55;26.85;;;13.10;60.80;;;;;;5042796;28;20048;-64
2021/03/25 00:09:18;;;;;;;38.58;25.23;;;13.00;60.80;;;;;;5049451;28;20505;-64
2021/03/25 00:11:44;;;;;;;40.45;23.98;;;13.10;60.80;;;;;;5049266;28;20110;-64
2021/03/25 00:14:10;;;;;;;38.95;25.52;;;13.10;60.80;;;;;;5066005;28;20475;-64
2021/03/25 00:16:35;;;;;;;37.97;24.17;;;13.10;60.80;;;;;;5049961;28;20056;-65
2021/03/25 00:19:01;;;;;;;41.20;25.85;;;13.10;60.80;;;;;;5038259;28;20107;-64
2021/03/25 00:21:27;;;;;;;38.78;25.30;;;13.10;60.80;;;;;;5045469;28;20120;-64
2021/03/25 00:23:53;;;;;;;40.92;25.52;;;13.00;61.00;;;;;;5050527;28;20459;-64
2021/03/25 00:26:18;;;;;;;40.53;26.48;;;13.00;60.90;;;;;;5057217;28;20029;-64
2021/03/25 00:28:44;;;;;;;42.28;25.98;;;13.00;60.80;;;;;;5036928;28;20025;-64
2021/03/25 00:31:09;;;;;;;39.95;26.85;;;13.00;60.70;;;;;;5048519;28;20037;-64
2021/03/25 00:33:35;;;;;;;42.83;27.75;;;13.00;60.90;;;;;;5064349;28;20042;-64
2021/03/25 00:36:01;;;;;;;38.70;25.50;;;12.90;61.00;;;;;;5050764;28;20402;-64
2021/03/25 00:38:26;;;;;;;42.70;25.92;;;13.00;61.00;;;;;;5049356;28;20459;-64
2021/03/25 00:40:52;;;;;;;36.45;23.55;;;12.90;61.10;;;;;;5050310;28;20033;-64
2021/03/25 00:43:21;;;;;;;36.47;24.27;;;12.90;61.10;;;;;;5047063;28;20044;-64
2021/03/25 00:45:48;;;;;;;42.63;26.08;;;12.90;61.20;;;;;;5054059;28;20024;-63
2021/03/25 00:48:17;;;;;;;42.92;26.48;;;12.90;61.20;;;;;;5056277;28;20032;-64
2021/03/25 00:50:46;;;;;;;39.40;24.95;;;12.90;61.40;;;;;;5042440;28;20025;-64
2021/03/25 00:53:14;;;;;;;38.97;23.85;;;12.80;61.40;;;;;;5049443;28;20072;-65
2021/03/25 00:55:40;;;;;;;38.97;26.02;;;12.90;61.70;;;;;;5057865;28;20033;-65
2021/03/25 00:58:06;;;;;;;44.22;25.65;;;12.90;61.90;;;;;;5057772;28;20567;-65
2021/03/25 01:00:34;;;;;;;42.85;28.17;;;12.80;61.80;;;;;;5042765;28;20387;-65
2021/03/25 01:03:00;;;;;;;46.58;28.45;;;12.80;61.90;;;;;;5048447;28;20024;-66
2021/03/25 01:05:27;;;;;;;44.08;27.50;;;12.80;61.90;;;;;;5050699;28;20029;-65
2021/03/25 01:07:53;;;;;;;44.58;26.77;;;12.80;61.90;;;;;;5051605;28;20510;-65
2021/03/25 01:10:33;;;;;;;40.03;26.00;;;12.80;61.90;;;;;;5047514;28;20037;-65
2021/03/25 01:13:02;;;;;;;39.40;26.40;;;12.70;62.00;;;;;;5045531;28;20151;-65
2021/03/25 01:15:28;;;;;;;38.92;24.65;;;12.80;62.00;;;;;;5035433;28;20049;-65
2021/03/25 01:17:56;;;;;;;41.47;27.88;;;12.70;62.00;;;;;;5049277;28;20049;-65
2021/03/25 01:20:27;;;;;;;45.17;27.83;;;12.70;62.10;;;;;;5048957;28;20109;-63
2021/03/25 01:22:53;;;;;;;43.05;26.92;;;12.70;62.10;;;;;;5055243;28;20124;-64
2021/03/25 01:25:21;;;;;;;43.83;28.45;;;12.70;62.10;;;;;;5054413;28;20040;-63
2021/03/25 01:27:47;;;;;;;46.58;25.90;;;12.70;62.20;;;;;;5056286;28;20052;-63
2021/03/25 01:30:14;;;;;;;42.15;29.08;;;12.70;62.20;;;;;;5047224;28;20041;-64
2021/03/25 01:32:40;;;;;;;43.40;26.02;;;12.70;62.20;;;;;;5046629;28;20101;-63
2021/03/25 01:35:08;;;;;;;41.15;24.20;;;12.70;62.20;;;;;;5045429;28;20404;-64
2021/03/25 01:37:34;;;;;;;44.38;27.67;;;12.70;62.20;;;;;;5049417;28;20458;-64
2021/03/25 01:39:59;;;;;;;39.30;25.30;;;12.70;62.30;;;;;;5045367;28;20048;-64
2021/03/25 01:42:28;;;;;;;43.78;25.95;;;12.70;62.30;;;;;;5048847;28;20462;-64
2021/03/25 01:44:54;;;;;;;41.90;26.77;;;12.70;62.40;;;;;;5052662;28;20447;-64
2021/03/25 01:47:20;;;;;;;42.50;27.23;;;12.70;62.50;;;;;;5062985;28;20048;-64
2021/03/25 01:49:46;;;;;;;46.15;26.63;;;12.60;62.70;;;;;;5041784;28;20025;-64
2021/03/25 01:52:27;;;;;;;43.17;26.17;;;12.70;62.90;;;;;;5042983;28;20025;-64
2021/03/25 01:55:29;;;;;;;47.05;27.73;;;12.60;63.20;;;;;;5040211;28;20064;-64
2021/03/25 01:58:34;;;;;;;45.33;28.83;;;12.60;63.20;;;;;;5048743;28;20033;-64
2021/03/25 02:01:09;;;;;;;47.00;30.05;;;12.60;63.30;;;;;;5060225;28;20565;-64
2021/03/25 02:03:47;;;;;;;44.33;28.30;;;12.60;63.10;;;;;;5049336;28;20617;-64
2021/03/25 02:06:40;;;;;;;41.40;25.88;;;12.60;63.20;;;;;;5049561;28;20029;-64
2021/03/25 02:09:37;;;;;;;48.90;28.73;;;12.60;63.40;;;;;;5051554;28;20032;-64
2021/03/25 02:12:29;;;;;;;49.10;30.45;;;12.60;63.30;;;;;;5042569;28;20029;-64
2021/03/25 02:15:23;;;;;;;47.60;27.88;;;12.60;63.20;;;;;;5037754;28;20032;-64
2021/03/25 02:17:56;;;;;;;51.33;30.63;;;12.60;63.20;;;;;;5029568;28;20033;-65
2021/03/25 02:20:36;;;;;;;44.15;28.83;;;12.60;62.90;;;;;;5044235;28;20036;-64
2021/03/25 02:23:24;;;;;;;46.70;29.75;;;12.70;62.90;;;;;;5082696;28;20055;-64
2021/03/25 02:25:59;;;;;;;44.70;28.65;;;12.60;62.90;;;;;;5047522;28;20028;-65
2021/03/25 02:28:34;;;;;;;45.28;27.75;;;12.60;62.90;;;;;;5053389;28;20028;-64
2021/03/25 02:31:08;;;;;;;43.50;27.33;;;12.60;62.90;;;;;;5036875;28;20030;-64
2021/03/25 02:33:34;;;;;;;;;;;12.70;63.10;;;;;;5040964;28;20479;-64
2021/03/25 02:36:05;;;;;;;45.00;27.17;;;12.80;63.10;;;;;;5064469;28;19909;-64
2021/03/25 02:38:44;;;;;;;47.00;30.35;;;12.80;62.90;;;;;;5045715;28;20044;-64
2021/03/25 02:41:23;;;;;;;47.10;29.58;;;12.70;63.10;;;;;;5068331;28;20048;-64
2021/03/25 02:44:01;;;;;;;47.85;30.17;;;12.70;63.00;;;;;;5052274;28;20116;-65
2021/03/25 02:46:46;;;;;;;47.38;28.65;;;12.80;62.90;;;;;;5053257;28;20024;-64
2021/03/25 02:49:16;;;;;;;49.25;29.20;;;12.80;62.80;;;;;;5051042;28;20024;-64
2021/03/25 02:52:20;;;;;;;44.53;30.30;;;12.80;62.90;;;;;;5056825;28;20032;-64
2021/03/25 02:54:46;;;;;;;48.28;30.35;;;12.80;63.20;;;;;;5051684;28;20033;-64
2021/03/25 02:57:18;;;;;;;46.22;29.48;;;12.90;63.00;;;;;;5051484;28;20394;-64
2021/03/25 02:59:46;;;;;;;48.00;28.55;;;12.90;63.10;;;;;;5054688;28;20026;-64
2021/03/25 03:02:29;;;;;;;52.05;29.33;;;12.90;63.10;;;;;;5048502;28;20087;-64
2021/03/25 03:05:00;;;;;;;46.15;28.08;;;12.90;63.30;;;;;;5052274;28;20036;-64
2021/03/25 03:07:50;;;;;;;41.55;27.70;;;12.90;63.20;;;;;;5050959;28;20098;-64
2021/03/25 03:10:22;;;;;;;45.70;28.75;;;12.90;63.30;;;;;;5045080;28;20037;-64
2021/03/25 03:12:50;;;;;;;51.70;29.95;;;12.90;63.20;;;;;;5051733;28;20363;-63
2021/03/25 03:15:28;;;;;;;54.40;31.38;;;12.90;63.10;;;;;;5060368;28;20037;-64
2021/03/25 03:18:09;;;;;;;51.40;32.30;;;12.90;62.90;;;;;;5047371;28;20037;-64
2021/03/25 03:20:37;;;;;;;53.15;33.13;;;13.00;62.60;;;;;;5046642;28;20033;-64
2021/03/25 03:23:03;;;;;;;48.97;31.73;;;13.00;62.60;;;;;;5049779;28;20045;-63
2021/03/25 03:25:29;;;;;;;52.25;33.17;;;13.00;62.80;;;;;;5036550;28;20026;-63
2021/03/25 03:28:04;;;;;;;48.60;30.17;;;13.00;62.80;;;;;;5047979;28;20528;-64
2021/03/25 03:30:47;;;;;;;53.90;35.28;;;13.00;63.00;;;;;;5050880;28;20036;-63
2021/03/25 03:33:23;;;;;;;51.53;34.15;;;13.00;63.10;;;;;;5051222;28;20132;-64
2021/03/25 03:35:56;;;;;;;54.08;34.63;;;13.00;62.90;;;;;;5051329;28;20064;-63
2021/03/25 03:38:28;;;;;;;49.72;33.80;;;13.00;62.60;;;;;;5051888;28;20044;-64
2021/03/25 03:40:56;;;;;;;55.88;37.28;;;13.00;62.30;;;;;;5049753;28;20049;-65
2021/03/25 03:43:22;;;;;;;59.65;37.90;;;13.10;62.20;;;;;;5067508;28;20116;-64
2021/03/25 03:45:57;;;;;;;56.72;35.53;;;13.10;62.20;;;;;;5033797;28;20116;-64
2021/03/25 03:49:01;;;;;;;55.33;36.95;;;13.10;62.20;;;;;;5050664;28;20033;-64
2021/03/25 03:51:32;;;;;;;55.65;35.33;;;13.00;62.30;;;;;;5014386;28;20084;-64
2021/03/25 03:54:01;;;;;;;57.70;36.67;;;13.10;62.10;;;;;;5033671;28;20440;-64
2021/03/25 03:56:32;;;;;;;59.40;35.72;;;13.10;62.00;;;;;;5051933;28;20069;-64
2021/03/25 03:59:04;;;;;;;58.47;37.30;;;13.10;61.90;;;;;;5051353;28;20068;-64
2021/03/25 04:01:52;;;;;;;54.90;35.47;;;13.10;62.00;;;;;;5036398;28;20037;-64
2021/03/25 04:04:30;;;;;;;54.22;36.97;;;13.10;62.10;;;;;;5060366;28;20581;-64
2021/03/25 04:06:59;;;;;;;53.92;35.15;;;13.10;62.00;;;;;;5032504;28;20143;-64
2021/03/25 04:09:40;;;;;;;55.53;34.10;;;13.10;61.90;;;;;;5050884;28;20471;-64
2021/03/25 04:12:13;;;;;;;54.80;36.25;;;13.00;62.00;;;;;;5051438;28;20021;-65
2021/03/25 04:14:46;;;;;;;58.45;36.35;;;13.10;62.10;;;;;;5056834;28;20486;-64
2021/03/25 04:17:15;;;;;;;58.87;37.27;;;13.10;62.00;;;;;;5068645;28;20394;-64
2021/03/25 04:19:45;;;;;;;54.58;35.25;;;13.10;62.00;;;;;;5049388;28;20097;-64
2021/03/25 04:22:16;;;;;;;56.15;37.95;;;13.10;61.90;;;;;;5049609;28;20025;-64
2021/03/25 04:24:53;;;;;;;53.97;36.60;;;13.10;62.00;;;;;;5046735;28;20029;-64
2021/03/25 04:27:28;;;;;;;59.47;38.42;;;13.00;62.20;;;;;;5047889;28;20036;-64
2021/03/25 04:30:01;;;;;;;58.45;38.70;;;13.10;62.50;;;;;;5054219;28;20024;-64
2021/03/25 04:32:27;;;;;;;57.35;38.13;;;13.00;62.50;;;;;;5057135;28;20193;-64
2021/03/25 04:34:52;;;;;;;56.85;36.05;;;13.10;62.80;;;;;;5036635;28;20396;-64
2021/03/25 04:37:19;;;;;;;54.97;34.88;;;13.00;62.90;;;;;;5062461;28;20041;-64
2021/03/25 04:39:47;;;;;;;65.45;36.42;;;13.00;62.90;;;;;;5040434;28;20514;-64
2021/03/25 04:42:14;;;;;;;58.95;38.10;;;13.10;63.00;;;;;;5045099;28;20032;-64
2021/03/25 04:44:49;;;;;;;65.35;39.45;;;13.00;62.70;;;;;;5049480;28;20032;-64
2021/03/25 04:47:28;;;;;;;59.17;38.03;;;13.00;62.50;;;;;;5038741;28;20064;-64
2021/03/25 04:50:03;;;;;;;60.00;38.17;;;13.00;62.50;;;;;;5049943;28;20016;-64
2021/03/25 04:52:31;;;;;;;56.88;37.88;;;13.00;62.50;;;;;;5058718;28;20024;-63
2021/03/25 04:55:07;;;;;;;56.42;35.85;;;13.00;62.40;;;;;;5050617;28;20021;-64
2021/03/25 04:57:41;;;;;;;61.45;39.40;;;13.00;62.40;;;;;;5062643;28;20045;-63
2021/03/25 05:00:18;;;;;;;65.70;40.38;;;13.00;62.20;;;;;;5049465;28;20032;-63
2021/03/25 05:02:43;;;;;;;57.80;37.00;;;13.00;62.10;;;;;;5049522;28;20094;-64
2021/03/25 05:05:16;;;;;;;58.92;38.75;;;13.00;62.10;;;;;;5049499;28;20132;-63
2021/03/25 05:07:45;;;;;;;54.65;36.78;;;13.00;62.10;;;;;;5050827;28;20032;-63
2021/03/25 05:10:18;;;;;;;56.63;36.60;;;13.00;62.10;;;;;;5049253;28;20025;-63
2021/03/25 05:12:43;;;;;;;60.63;38.20;;;13.00;62.10;;;;;;5050228;28;20037;-64
2021/03/25 05:15:13;;;;;;;59.65;38.33;;;13.00;62.10;;;;;;5033271;28;20026;-63
2021/03/25 05:18:15;;;;;;;59.63;36.63;;;13.00;62.20;;;;;;5044934;28;20037;-63
2021/03/25 05:20:55;;;;;;;57.55;37.58;;;13.00;62.50;;;;;;5048212;28;20041;-63
2021/03/25 05:23:45;;;;;;;56.67;36.13;;;13.00;62.20;;;;;;5050180;28;20105;-63
2021/03/25 05:26:19;;;;;;;65.05;38.85;;;12.90;62.40;;;;;;5049343;28;20036;-63
2021/03/25 05:28:50;;;;;;;55.83;36.28;;;12.90;62.30;;;;;;5029093;28;20033;-63
2021/03/25 05:31:18;;;;;;;58.25;36.78;;;12.90;62.40;;;;;;5046069;28;20125;-63
2021/03/25 05:33:51;;;;;;;65.25;38.63;;;12.90;62.50;;;;;;5050452;28;20032;-63
2021/03/25 05:36:17;;;;;;;59.13;38.17;;;12.90;62.60;;;;;;5049700;28;20037;-64
2021/03/25 05:38:43;;;;;;;59.53;35.70;;;12.90;62.50;;;;;;5048020;28;20037;-64
2021/03/25 05:41:30;;;;;;;56.10;35.30;;;12.90;62.60;;;;;;5037675;28;20120;-64
2021/03/25 05:44:34;;;;;;;58.65;37.80;;;12.80;62.60;;;;;;5029926;28;20491;-64
2021/03/25 05:47:08;;;;;;;61.38;35.92;;;12.80;62.90;;;;;;5047407;28;20094;-63
2021/03/25 05:49:43;;;;;;;59.58;37.40;;;12.70;62.70;;;;;;5049012;28;20033;-64
2021/03/25 05:52:34;;;;;;;61.78;36.58;;;12.70;62.90;;;;;;5049413;28;20036;-64
2021/03/25 05:55:06;;;;;;;59.38;39.03;;;12.60;63.00;;;;;;5049495;28;20025;-64
2021/03/25 05:57:45;;;;;;;63.90;39.95;;;12.60;63.10;;;;;;5049218;28;20052;-64
2021/03/25 06:00:17;;;;;;;59.13;36.53;;;12.50;63.20;;;;;;5060028;28;20025;-64
2021/03/25 06:02:47;;;;;;;64.07;39.30;;;12.60;63.40;;;;;;5052616;28;20028;-64
2021/03/25 06:05:13;;;;;;;59.85;38.47;;;12.60;63.40;;;;;;5051400;28;20087;-64
2021/03/25 06:07:54;;;;;;;57.35;37.83;;;12.60;63.50;;;;;;5053653;28;20124;-64
2021/03/25 06:10:28;;;;;;;62.00;38.00;;;12.60;63.60;;;;;;5053551;28;20082;-63
2021/03/25 06:13:10;;;;;;;60.47;38.60;;;12.60;63.70;;;;;;5053323;28;20493;-64
2021/03/25 06:16:12;;;;;;;63.55;38.47;;;12.60;63.80;;;;;;5043185;28;20125;-64
2021/03/25 06:19:02;;;;;;;64.28;38.70;;;12.60;63.80;;;;;;5052448;28;20076;-64
2021/03/25 06:21:30;;;;;;;58.88;37.65;;;12.60;63.70;;;;;;5041258;28;20029;-64
2021/03/25 06:24:18;;;;;;;67.72;41.08;;;12.70;63.60;;;;;;5038016;28;20444;-64
2021/03/25 06:26:55;;;;;;;70.95;40.72;;;12.60;63.80;;;;;;5049779;28;20476;-64
2021/03/25 06:29:35;;;;;;;64.70;38.95;;;12.60;63.70;;;;;;5052921;28;20079;-64
2021/03/25 06:32:15;;;;;;;60.50;37.58;;;12.70;63.80;;;;;;5050092;28;20083;-63
2021/03/25 06:34:53;;;;;;;66.57;41.00;;;12.70;63.90;;;;;;5053402;28;20035;-64
2021/03/25 06:37:19;;;;;;;68.57;39.70;;;12.70;63.80;;;;;;5045025;28;20386;-64
2021/03/25 06:39:47;;;;;;;56.13;36.28;;;12.80;63.80;;;;;;5042422;28;20030;-64
2021/03/25 06:42:31;;;;;;;65.90;41.90;;;12.90;63.80;;;;;;5052624;28;20479;-63
2021/03/25 06:45:08;;;;;;;58.28;37.90;;;12.90;63.90;;;;;;5041781;28;20763;-64
2021/03/25 06:47:49;;;;;;;62.67;39.75;;;13.00;63.80;;;;;;5043392;28;20479;-64
2021/03/25 06:50:19;;;;;;;58.45;37.45;;;13.30;63.50;;;;;;5049636;28;20055;-64
2021/03/25 06:52:45;;;;;;;62.13;39.35;;;13.50;63.00;;;;;;5067824;28;20039;-64
2021/03/25 06:55:17;;;;;;;70.03;41.90;;;13.50;62.80;;;;;;5037497;28;20656;-64
2021/03/25 06:57:57;;;;;;;65.35;39.15;;;13.60;62.70;;;;;;5040136;28;20037;-64
2021/03/25 07:00:25;;;;;;;67.35;42.88;;;13.60;62.70;;;;;;5047680;28;20045;-64
2021/03/25 07:02:53;;;;;;;58.67;37.78;;;13.60;62.40;;;;;;5048730;28;20107;-64
2021/03/25 07:05:31;;;;;;;67.38;40.83;;;13.70;62.40;;;;;;5047927;28;20467;-64
2021/03/25 07:08:17;;;;;;;68.43;39.92;;;13.90;62.10;;;;;;5053063;28;20474;-64
2021/03/25 07:10:44;;;;;;;68.85;42.85;;;14.20;61.40;;;;;;5050643;28;20061;-64
2021/03/25 07:13:25;;;;;;;62.90;41.50;;;14.50;60.70;;;;;;5049074;28;20108;-64
2021/03/25 07:15:51;;;;;;;64.60;40.83;;;14.70;60.00;;;;;;5051070;28;20141;-64
2021/03/25 07:18:34;;;;;;;67.95;42.63;;;14.90;59.30;;;;;;5052858;28;20033;-64
2021/03/25 07:21:22;;;;;;;67.13;43.65;;;15.30;58.90;;;;;;5049161;28;20029;-64
2021/03/25 07:23:49;;;;;;;84.10;46.05;;;15.80;57.70;;;;;;5043392;28;20142;-64
2021/03/25 07:26:40;;;;;;;66.25;44.42;;;16.30;56.70;;;;;;5049740;28;20032;-65
2021/03/25 07:29:11;;;;;;;66.82;45.65;;;16.80;55.20;;;;;;5062924;28;20035;-65
2021/03/25 07:32:00;;;;;;;74.22;47.58;;;17.70;53.20;;;;;;5048959;28;20116;-65
2021/03/25 07:34:45;;;;;;;64.05;39.65;;;19.00;50.40;;;;;;5072413;28;20029;-65
2021/03/25 07:37:34;;;;;;;55.97;39.80;;;20.40;48.00;;;;;;5058936;28;20029;-65
2021/03/25 07:40:04;;;;;;;55.03;39.38;;;21.60;45.30;;;;;;5064634;28;20398;-65
2021/03/25 07:42:36;;;;;;;52.60;38.97;;;22.50;42.50;;;;;;5050879;28;20380;-64
2021/03/25 07:45:20;;;;;;;51.40;38.83;;;22.70;42.00;;;;;;5048827;28;20021;-65
2021/03/25 07:47:47;;;;;;;54.15;38.45;;;22.60;41.20;;;;;;5042412;28;20029;-65
2021/03/25 07:50:35;;;;;;;54.20;39.50;;;22.70;41.40;;;;;;5032423;28;20102;-64
2021/03/25 07:53:21;;;;;;;56.33;39.20;;;22.40;41.40;;;;;;5040646;28;20040;-64
2021/03/25 07:55:47;;;;;;;51.80;37.35;;;21.90;42.40;;;;;;5063252;28;20051;-64
2021/03/25 07:58:39;;;;;;;54.13;39.03;;;21.40;42.80;;;;;;5050047;28;20041;-65
2021/03/25 08:01:18;;;;;;;53.58;37.42;;;21.20;43.40;;;;;;5045785;28;20051;-65
2021/03/25 08:03:50;;;;;;;54.80;38.25;;;21.30;43.30;;;;;;5053470;28;20052;-64
2021/03/25 08:06:37;;;;;;;58.03;38.03;;;21.70;42.30;;;;;;5050615;28;20017;-64
2021/03/25 08:09:13;;;;;;;48.80;34.33;;;22.30;42.20;;;;;;5051002;28;20040;-64
2021/03/25 08:11:55;;;;;;;60.22;39.88;;;23.10;41.30;;;;;;5049807;28;20071;-65
2021/03/25 08:14:22;;;;;;;50.85;35.33;;;24.30;38.60;;;;;;5046770;28;20147;-65
2021/03/25 08:16:51;;;;;;;53.67;35.65;;;24.70;38.00;;;;;;5065374;28;20443;-65
2021/03/25 08:19:44;;;;;;;54.83;37.35;;;24.70;37.50;;;;;;5052937;28;20037;-64
2021/03/25 08:22:29;;;;;;;52.92;35.30;;;24.80;37.20;;;;;;5051499;28;20033;-65
2021/03/25 08:24:58;;;;;;;47.30;34.13;;;25.40;36.50;;;;;;5065312;28;20040;-64
2021/03/25 08:28:01;;;;;;;42.35;34.47;;;26.50;35.70;;;;;;5039490;28;20038;-64
2021/03/25 08:30:45;;;;;;;44.13;34.67;;;27.10;34.30;;;;;;5051114;28;20427;-64
2021/03/25 08:33:49;;;;;;;47.13;34.42;;;26.80;34.70;;;;;;5086165;28;20420;-65
2021/03/25 08:36:38;;;;;;;48.05;35.10;;;26.60;34.50;;;;;;5049798;28;20044;-65
2021/03/25 08:39:28;;;;;;;45.15;32.00;;;27.00;34.10;;;;;;5049721;28;20056;-65
2021/03/25 08:42:10;;;;;;;47.50;32.88;;;27.50;33.20;;;;;;5039171;28;20467;-65
2021/03/25 08:44:54;;;;;;;45.42;33.35;;;27.80;33.10;;;;;;5049020;28;20064;-65
2021/03/25 08:47:26;;;;;;;50.03;33.42;;;28.00;32.90;;;;;;5049412;28;20127;-64
2021/03/25 08:50:10;;;;;;;41.33;33.45;;;27.90;32.80;;;;;;5050025;28;20021;-63
2021/03/25 08:52:38;;;;;;;37.28;27.15;;;28.30;32.90;;;;;;5048828;28;20343;-64
2021/03/25 08:55:34;;;;;;;40.53;31.05;;;29.20;32.50;;;;;;5049304;28;20107;-66
2021/03/25 08:58:18;;;;;;;33.20;27.48;;;30.30;30.60;;;;;;5049362;28;20750;-65
2021/03/25 09:00:48;;;;;;;36.95;27.73;;;31.50;30.00;;;;;;5048353;28;20032;-65
2021/03/25 09:03:33;;;;;;;35.10;28.83;;;32.40;29.00;;;;;;5030376;28;20025;-65
2021/03/25 09:06:21;;;;;;;33.40;26.45;;;33.20;28.40;;;;;;5039911;28;20439;-65
2021/03/25 09:08:51;;;;;;;36.70;27.98;;;33.90;27.90;;;;;;5030240;28;20029;-65
2021/03/25 09:11:19;;;;;;;34.90;25.48;;;34.30;27.80;;;;;;5049315;28;20024;-65
2021/03/25 09:13:53;;;;;;;30.38;23.58;;;34.10;27.20;;;;;;5059729;28;20483;-65
2021/03/25 09:16:45;;;;;;;32.90;23.02;;;32.90;27.80;;;;;;5031713;28;20045;-64
2021/03/25 09:19:26;;;;;;;39.85;28.10;;;31.50;28.60;;;;;;5029825;28;20061;-64
2021/03/25 09:21:56;;;;;;;37.55;27.98;;;29.70;29.40;;;;;;5031816;28;20018;-64
2021/03/25 09:24:22;;;;;;;35.67;28.05;;;27.90;31.30;;;;;;5045794;28;20148;-64
2021/03/25 09:26:55;;;;;;;35.38;27.55;;;26.20;33.70;;;;;;5049240;28;20129;-64
2021/03/25 09:29:30;;;;;;;39.80;28.88;;;25.50;35.10;;;;;;5048321;28;20029;-65
2021/03/25 09:31:56;;;;;;;33.75;26.48;;;25.50;35.90;;;;;;5047577;28;20025;-65
2021/03/25 09:34:24;;;;;;;36.28;26.50;;;25.80;35.40;;;;;;5049250;28;20066;-65
2021/03/25 09:36:56;;;;;;;32.90;25.50;;;26.30;34.90;;;;;;5029671;28;20036;-65
2021/03/25 09:39:26;;;;;;;35.83;26.08;;;26.70;33.90;;;;;;5029749;28;20033;-65
2021/03/25 09:41:54;;;;;;;35.67;25.92;;;26.80;33.40;;;;;;5029486;28;20368;-64
2021/03/25 09:44:38;;;;;;;36.22;27.83;;;26.60;33.80;;;;;;5040151;28;20466;-65
2021/03/25 09:47:03;;;;;;;36.00;27.95;;;26.40;34.20;;;;;;5052267;28;20040;-65
2021/03/25 09:49:35;;;;;;;34.05;26.55;;;26.50;34.00;;;;;;5048532;28;20056;-65
2021/03/25 09:52:13;;;;;;;36.13;25.52;;;26.60;34.10;;;;;;5049140;28;20359;-65
2021/03/25 09:54:46;;;;;;;38.00;26.60;;;26.40;34.30;;;;;;5048206;28;20025;-64
2021/03/25 10:00:00;;;;;;;35.35;23.73;;;24.40;36.90;;;;;;5051115;28;20106;-64
2021/03/25 10:02:41;;;;;;;30.90;23.23;;;23.90;37.80;;;;;;5046417;28;20460;-64
2021/03/25 10:05:28;;;;;;;31.85;23.60;;;23.30;38.40;;;;;;5058286;28;20033;-65
2021/03/25 10:08:20;;;;;;;30.48;22.98;;;22.90;39.30;;;;;;5066165;28;20115;-64
2021/03/25 10:10:53;;;;;;;32.40;23.57;;;22.30;40.40;;;;;;5055444;28;20025;-64
2021/03/25 10:13:43;;;;;;;30.92;21.73;;;22.10;41.20;;;;;;5032000;28;20115;-63
2021/03/25 10:16:36;;;;;;;35.28;22.80;;;21.90;41.80;;;;;;5046851;28;20052;-63
2021/03/25 10:19:07;;;;;;;;;;;21.70;42.10;;;;;;5048960;28;20508;-64
2021/03/25 10:21:44;;;;;;;31.50;22.95;;;21.60;42.60;;;;;;5047465;28;20007;-64
2021/03/25 10:24:23;;;;;;;31.48;23.15;;;21.30;43.30;;;;;;5049806;28;20070;-64
2021/03/25 10:26:49;;;;;;;34.60;25.05;;;21.60;43.60;;;;;;5048393;28;20029;-65
2021/03/25 10:29:34;;;;;;;31.92;24.08;;;23.00;41.80;;;;;;5047263;28;20045;-65
2021/03/25 10:32:03;;;;;;;33.35;23.90;;;24.20;39.70;;;;;;5047773;28;20120;-65
2021/03/25 10:34:36;;;;;;;33.55;25.48;;;24.10;39.20;;;;;;5050599;28;20025;-65
2021/03/25 10:37:20;;;;;;;33.35;25.30;;;23.20;40.30;;;;;;5046654;28;20025;-64
2021/03/25 10:39:46;;;;;;;36.60;26.23;;;22.40;41.60;;;;;;5061787;28;20033;-64
2021/03/25 10:42:15;;;;;;;33.55;25.25;;;21.80;42.70;;;;;;5046662;28;20052;-65
2021/03/25 10:44:40;;;;;;;30.02;22.25;;;21.20;44.00;;;;;;5037012;28;20106;-65
2021/03/25 10:47:21;;;;;;;40.85;25.33;;;20.60;45.10;;;;;;5045539;28;20436;-65
2021/03/25 10:49:50;;;;;;;32.80;23.58;;;20.20;46.30;;;;;;5065795;28;20133;-64
2021/03/25 10:52:26;;;;;;;33.67;23.27;;;20.10;46.90;;;;;;5045592;28;20456;-65
2021/03/25 10:54:56;;;;;;;39.10;25.05;;;20.30;46.80;;;;;;5035607;28;20060;-63
2021/03/25 10:57:25;;;;;;;33.28;23.52;;;20.80;46.10;;;;;;5047820;28;20055;-64
2021/03/25 10:59:52;;;;;;;31.83;24.20;;;21.10;45.30;;;;;;5056683;28;20037;-63
2021/03/25 11:02:24;;;;;;;32.65;23.27;;;21.20;45.30;;;;;;5057420;28;20028;-64
2021/03/25 11:05:05;;;;;;;31.63;22.52;;;21.10;45.50;;;;;;5068009;28;20028;-63
2021/03/25 11:07:38;;;;;;;26.85;20.85;;;21.50;45.70;;;;;;5051202;28;20088;-64
2021/03/25 11:10:05;;;;;;;30.13;22.30;;;21.70;44.80;;;;;;5053860;28;20032;-64
2021/03/25 11:12:33;;;;;;;33.83;23.30;;;21.70;44.10;;;;;;5055906;28;20021;-64
2021/03/25 11:15:14;;;;;;;33.38;23.52;;;22.00;44.30;;;;;;5053312;28;20025;-64
2021/03/25 11:17:42;;;;;;;27.25;22.25;;;21.70;44.70;;;;;;5064640;28;20050;-64
2021/03/25 11:20:14;;;;;;;28.80;22.98;;;22.00;44.60;;;;;;5045055;28;20051;-64
2021/03/25 11:22:40;;;;;;;34.95;22.90;;;21.80;44.90;;;;;;5051902;28;20036;-65
2021/03/25 11:25:15;;;;;;;27.98;21.70;;;21.40;45.60;;;;;;5050590;28;20132;-64
2021/03/25 11:27:41;;;;;;;30.70;22.35;;;20.70;46.50;;;;;;5048992;28;20056;-64
2021/03/25 11:30:25;;;;;;;33.58;23.73;;;20.10;47.80;;;;;;5048519;28;20041;-67
2021/03/25 11:32:51;;;;;;;33.70;23.73;;;19.60;49.20;;;;;;5050461;28;20025;-64
2021/03/25 11:35:26;;;;;;;29.80;21.00;;;19.30;50.30;;;;;;5056079;28;20039;-65
2021/03/25 11:37:53;;;;;;;29.92;21.13;;;19.10;51.10;;;;;;5031441;28;20040;-64
2021/03/25 11:40:36;;;;;;;31.92;22.80;;;18.90;51.60;;;;;;5047044;28;20036;-64
2021/03/25 11:43:12;;;;;;;;;;;18.70;51.80;;;;;;5046863;28;20059;-64
2021/03/25 11:45:40;;;;;;;28.63;22.20;;;18.70;52.40;;;;;;5052119;28;20407;-64
2021/03/25 11:48:30;;;;;;;29.95;20.30;;;18.40;52.90;;;;;;5050073;28;20029;-65
2021/03/25 11:51:18;;;;;;;25.20;20.58;;;18.10;53.40;;;;;;5043773;28;20098;-64
2021/03/25 11:53:50;;;;;;;25.77;20.30;;;18.10;53.80;;;;;;5048179;28;20025;-65
2021/03/25 11:56:38;;;;;;;25.45;18.63;;;18.00;54.10;;;;;;5051955;28;20030;-64
2021/03/25 11:59:20;;;;;;;24.58;19.15;;;17.90;54.70;;;;;;5050486;28;20040;-65
2021/03/25 12:01:46;;;;;;;24.85;17.92;;;17.80;55.30;;;;;;5051000;28;20029;-65
2021/03/25 12:04:15;;;;;;;23.92;16.80;;;17.60;56.10;;;;;;5051823;28;20029;-65
2021/03/25 12:07:01;;;;;;;19.90;15.85;;;17.30;56.80;;;;;;5063090;28;20025;-65
2021/03/25 12:09:28;;;;;;;19.60;14.07;;;17.30;56.50;;;;;;5063884;28;20083;-65
2021/03/25 12:11:53;;;;;;;20.88;14.63;;;17.30;56.30;;;;;;5051682;28;20106;-64
2021/03/25 12:14:22;;;;;;;18.80;14.23;;;17.40;56.20;;;;;;5049204;28;20120;-65
2021/03/25 12:16:54;;;;;;;20.45;13.23;;;17.30;56.60;;;;;;5048010;28;20487;-65
2021/03/25 12:19:20;;;;;;;19.90;14.57;;;17.10;56.90;;;;;;5049841;28;20037;-65
2021/03/25 12:21:45;;;;;;;21.58;14.88;;;17.30;56.80;;;;;;5066010;28;20467;-65
2021/03/25 12:24:12;;;;;;;19.42;13.80;;;17.70;56.00;;;;;;5051019;28;20340;-65
2021/03/25 12:26:38;;;;;;;23.27;15.35;;;17.60;56.30;;;;;;5050459;28;20755;-65
2021/03/25 12:29:03;;;;;;;17.45;13.80;;;17.80;55.80;;;;;;5049199;28;20515;-65
2021/03/25 12:31:32;;;;;;;18.45;13.90;;;17.90;55.30;;;;;;5054844;28;20135;-65
2021/03/25 12:33:59;;;;;;;19.50;14.15;;;17.90;54.90;;;;;;5035794;28;20513;-65
2021/03/25 12:36:25;;;;;;;17.00;13.25;;;17.70;54.70;;;;;;5032474;28;20373;-65
2021/03/25 12:38:51;;;;;;;22.52;14.18;;;17.50;55.20;;;;;;5037598;28;20033;-65
2021/03/25 12:41:32;;;;;;;22.30;14.68;;;17.20;56.10;;;;;;5053080;28;20040;-65
2021/03/25 12:43:58;;;;;;;20.35;15.00;;;16.80;57.30;;;;;;5054338;28;20033;-65
2021/03/25 12:46:23;;;;;;;22.05;14.70;;;16.60;58.00;;;;;;5034957;28;20033;-65
2021/03/25 12:48:49;;;;;;;19.15;13.80;;;16.50;59.00;;;;;;5049221;28;20052;-65
2021/03/25 12:51:16;;;;;;;18.48;13.98;;;16.30;59.80;;;;;;5051205;28;20044;-64
2021/03/25 12:53:44;;;;;;;19.98;13.02;;;16.10;60.90;;;;;;5047175;28;20041;-64
2021/03/25 12:56:31;;;;;;;17.58;12.88;;;15.90;62.40;;;;;;5032407;28;20029;-64
2021/03/25 12:59:01;;;;;;;19.13;13.13;;;15.50;63.70;;;;;;5037945;28;20115;-64
2021/03/25 13:01:28;;;;;;;19.30;13.20;;;15.30;64.50;;;;;;5053280;28;20036;-64
2021/03/25 13:03:55;;;;;;;20.27;14.40;;;15.20;65.30;;;;;;5048559;28;20071;-64
2021/03/25 13:06:21;;;;;;;22.63;15.07;;;15.10;65.60;;;;;;5050223;28;20071;-64
2021/03/25 13:08:47;;;;;;;19.40;13.25;;;15.00;65.60;;;;;;5049946;28;20033;-64